Segno, Texas
Current Conditions -  °F | °C
As of 8:15 PM on Thursday 18 Dec 2014 (Local Time) from K6R3 Reporting Station
Overcast Overcast  
Wind Chill: 59°   Ceiling: 1000
Heat Index: 59°   Visibility: 7mi
Dew Point: 57°   Wind: 0mph
Humidity: 93%   Direction: NA
Pressure: 30.1"   Gusts: NA
Location:  30.7078°N, 94.8036°W
Report Text: K6R3 190215Z AUTO 00000KT 7SM OVC010 15/14 A3010 RMK AO2 LTG DSNT S T01500138
Loading
Personal Weather Stations






























Interactive Weather Map New forecast layout! Learn more

10-Day Weather Forecast

Advertisements
Track Severe Weather on mobile